sensor_id;sensor_type;location;lat;lon;timestamp;temperature;humidity
37158;DHT22;23050;51.776;22.638;2022-12-18T00:01:33;-5.70;99.90
37158;DHT22;23050;51.776;22.638;2022-12-18T00:04:01;-5.80;99.90
37158;DHT22;23050;51.776;22.638;2022-12-18T00:06:28;-5.70;99.90
37158;DHT22;23050;51.776;22.638;2022-12-18T00:08:55;-5.70;99.90
37158;DHT22;23050;51.776;22.638;2022-12-18T00:11:23;-5.70;99.90
37158;DHT22;23050;51.776;22.638;2022-12-18T00:13:50;-5.70;99.90
37158;DHT22;23050;51.776;22.638;2022-12-18T00:16:19;-5.70;99.90
37158;DHT22;23050;51.776;22.638;2022-12-18T00:18:46;-5.70;99.90
37158;DHT22;23050;51.776;22.638;2022-12-18T00:21:13;-5.80;99.90
37158;DHT22;23050;51.776;22.638;2022-12-18T00:23:40;-5.70;99.90
37158;DHT22;23050;51.776;22.638;2022-12-18T00:26:10;-5.80;99.90
37158;DHT22;23050;51.776;22.638;2022-12-18T04:11:01;-3.70;99.90
37158;DHT22;23050;51.776;22.638;2022-12-18T04:13:34;-5.80;99.90
37158;DHT22;23050;51.776;22.638;2022-12-18T04:16:00;-5.90;99.90
37158;DHT22;23050;51.776;22.638;2022-12-18T04:18:26;-6.00;99.90
37158;DHT22;23050;51.776;22.638;2022-12-18T04:20:52;-5.90;99.90
37158;DHT22;23050;51.776;22.638;2022-12-18T04:23:17;-5.90;99.90
37158;DHT22;23050;51.776;22.638;2022-12-18T04:25:43;-5.90;99.90
37158;DHT22;23050;51.776;22.638;2022-12-18T04:28:09;-6.20;99.90
37158;DHT22;23050;51.776;22.638;2022-12-18T04:30:35;-6.10;99.90
37158;DHT22;23050;51.776;22.638;2022-12-18T04:33:00;-5.90;99.90
37158;DHT22;23050;51.776;22.638;2022-12-18T04:35:26;-6.40;99.90
37158;DHT22;23050;51.776;22.638;2022-12-18T04:37:52;-6.20;99.90
37158;DHT22;23050;51.776;22.638;2022-12-18T04:40:18;-6.20;99.90
37158;DHT22;23050;51.776;22.638;2022-12-18T04:42:43;-6.10;99.90
37158;DHT22;23050;51.776;22.638;2022-12-18T04:45:09;-6.00;99.90
37158;DHT22;23050;51.776;22.638;2022-12-18T04:47:34;-5.90;99.90
37158;DHT22;23050;51.776;22.638;2022-12-18T04:50:00;-6.00;99.90
37158;DHT22;23050;51.776;22.638;2022-12-18T04:52:26;-6.00;99.90
37158;DHT22;23050;51.776;22.638;2022-12-18T04:54:51;-6.00;99.90
37158;DHT22;23050;51.776;22.638;2022-12-18T04:57:17;-6.00;99.90
37158;DHT22;23050;51.776;22.638;2022-12-18T04:59:45;-5.30;99.90
37158;DHT22;23050;51.776;22.638;2022-12-18T05:02:11;-6.30;99.90
37158;DHT22;23050;51.776;22.638;2022-12-18T05:04:36;-6.10;99.90
37158;DHT22;23050;51.776;22.638;2022-12-18T05:07:02;-6.30;99.90
37158;DHT22;23050;51.776;22.638;2022-12-18T05:09:27;-6.60;99.90
37158;DHT22;23050;51.776;22.638;2022-12-18T05:11:53;-6.00;99.90
37158;DHT22;23050;51.776;22.638;2022-12-18T05:14:19;-4.20;99.90
37158;DHT22;23050;51.776;22.638;2022-12-18T05:16:44;-6.00;99.90
37158;DHT22;23050;51.776;22.638;2022-12-18T05:19:10;-5.90;99.90
37158;DHT22;23050;51.776;22.638;2022-12-18T05:21:36;-7.80;99.90
37158;DHT22;23050;51.776;22.638;2022-12-18T05:24:01;-5.90;99.90
37158;DHT22;23050;51.776;22.638;2022-12-18T05:26:27;-6.00;99.90
37158;DHT22;23050;51.776;22.638;2022-12-18T05:28:52;-6.00;99.90
37158;DHT22;23050;51.776;22.638;2022-12-18T05:31:18;-6.00;99.90
37158;DHT22;23050;51.776;22.638;2022-12-18T05:33:44;-6.00;99.90
37158;DHT22;23050;51.776;22.638;2022-12-18T05:36:10;-6.90;99.90
37158;DHT22;23050;51.776;22.638;2022-12-18T05:38:37;-6.00;99.90
37158;DHT22;23050;51.776;22.638;2022-12-18T07:48:30;-4.00;99.90
37158;DHT22;23050;51.776;22.638;2022-12-18T07:51:00;-5.80;99.90
37158;DHT22;23050;51.776;22.638;2022-12-18T07:53:26;-5.70;99.90
37158;DHT22;23050;51.776;22.638;2022-12-18T07:55:58;-3.80;99.90
37158;DHT22;23050;51.776;22.638;2022-12-18T07:58:24;-6.10;99.90
37158;DHT22;23050;51.776;22.638;2022-12-18T08:00:51;-5.90;99.90
37158;DHT22;23050;51.776;22.638;2022-12-18T08:03:18;-5.70;99.90
37158;DHT22;23050;51.776;22.638;2022-12-18T08:05:43;-5.50;99.90
37158;DHT22;23050;51.776;22.638;2022-12-18T08:08:09;-5.50;99.90
37158;DHT22;23050;51.776;22.638;2022-12-18T08:10:34;-5.70;99.90
37158;DHT22;23050;51.776;22.638;2022-12-18T08:13:00;-5.40;99.90
37158;DHT22;23050;51.776;22.638;2022-12-18T08:15:26;-5.40;99.90
37158;DHT22;23050;51.776;22.638;2022-12-18T08:17:51;-5.40;99.90
37158;DHT22;23050;51.776;22.638;2022-12-18T08:20:17;-5.40;99.90
37158;DHT22;23050;51.776;22.638;2022-12-18T08:22:44;-2.70;99.90
37158;DHT22;23050;51.776;22.638;2022-12-18T08:25:10;-6.10;99.90
37158;DHT22;23050;51.776;22.638;2022-12-18T08:27:36;-3.20;99.90
37158;DHT22;23050;51.776;22.638;2022-12-18T08:30:02;-5.50;99.90
37158;DHT22;23050;51.776;22.638;2022-12-18T08:32:29;-5.30;99.90
37158;DHT22;23050;51.776;22.638;2022-12-18T08:34:54;-5.50;99.90
37158;DHT22;23050;51.776;22.638;2022-12-18T08:37:20;-5.40;99.90
37158;DHT22;23050;51.776;22.638;2022-12-18T08:39:46;-5.40;99.90
37158;DHT22;23050;51.776;22.638;2022-12-18T08:42:12;-5.40;99.90
37158;DHT22;23050;51.776;22.638;2022-12-18T08:44:56;-5.40;99.90
37158;DHT22;23050;51.776;22.638;2022-12-18T08:47:22;-5.70;99.90
37158;DHT22;23050;51.776;22.638;2022-12-18T08:49:47;-5.60;99.90
37158;DHT22;23050;51.776;22.638;2022-12-18T08:52:16;-5.50;99.90
37158;DHT22;23050;51.776;22.638;2022-12-18T14:59:04;-3.10;99.90
37158;DHT22;23050;51.776;22.638;2022-12-18T15:01:36;-7.00;99.90
37158;DHT22;23050;51.776;22.638;2022-12-18T15:04:04;-6.80;99.90
37158;DHT22;23050;51.776;22.638;2022-12-18T15:06:36;-6.80;99.90
37158;DHT22;23050;51.776;22.638;2022-12-18T15:09:31;-6.90;99.90
37158;DHT22;23050;51.776;22.638;2022-12-18T15:11:58;-7.00;99.90
37158;DHT22;23050;51.776;22.638;2022-12-18T15:17:06;-7.80;99.90
37158;DHT22;23050;51.776;22.638;2022-12-18T15:19:41;-7.20;99.90
37158;DHT22;23050;51.776;22.638;2022-12-18T15:22:23;-7.30;99.90
37158;DHT22;23050;51.776;22.638;2022-12-18T15:24:54;-7.40;99.90
37158;DHT22;23050;51.776;22.638;2022-12-18T15:27:31;-6.50;99.90
37158;DHT22;23050;51.776;22.638;2022-12-18T15:32:36;-7.70;99.90
37158;DHT22;23050;51.776;22.638;2022-12-18T15:35:22;-7.80;99.90
37158;DHT22;23050;51.776;22.638;2022-12-18T15:37:49;-7.80;99.90
37158;DHT22;23050;51.776;22.638;2022-12-18T15:40:23;-7.90;99.90
37158;DHT22;23050;51.776;22.638;2022-12-18T15:42:51;-8.00;99.90
37158;DHT22;23050;51.776;22.638;2022-12-18T15:45:36;-8.20;99.90
37158;DHT22;23050;51.776;22.638;2022-12-18T15:48:02;-8.30;99.90
37158;DHT22;23050;51.776;22.638;2022-12-18T15:50:28;-8.30;99.90
37158;DHT22;23050;51.776;22.638;2022-12-18T15:52:54;-8.40;99.90
37158;DHT22;23050;51.776;22.638;2022-12-18T15:55:23;-8.50;99.90
37158;DHT22;23050;51.776;22.638;2022-12-18T15:58:09;-7.20;99.90
37158;DHT22;23050;51.776;22.638;2022-12-18T16:00:38;-8.60;99.90
37158;DHT22;23050;51.776;22.638;2022-12-18T16:03:04;-8.70;99.90
37158;DHT22;23050;51.776;22.638;2022-12-18T16:05:31;-8.80;99.90
37158;DHT22;23050;51.776;22.638;2022-12-18T16:07:57;-8.90;99.90
37158;DHT22;23050;51.776;22.638;2022-12-18T16:10:24;-8.90;99.90
37158;DHT22;23050;51.776;22.638;2022-12-18T16:12:50;-7.80;99.90
37158;DHT22;23050;51.776;22.638;2022-12-18T16:15:16;-9.30;99.90
37158;DHT22;23050;51.776;22.638;2022-12-18T16:17:43;-10.10;99.90
37158;DHT22;23050;51.776;22.638;2022-12-18T16:20:16;-9.70;99.90
37158;DHT22;23050;51.776;22.638;2022-12-18T16:22:43;-9.30;99.90
37158;DHT22;23050;51.776;22.638;2022-12-18T16:25:27;-9.80;99.90
37158;DHT22;23050;51.776;22.638;2022-12-18T16:27:54;-10.10;99.90
37158;DHT22;23050;51.776;22.638;2022-12-18T16:30:25;-9.70;99.90
37158;DHT22;23050;51.776;22.638;2022-12-18T16:32:53;-10.50;99.90
37158;DHT22;23050;51.776;22.638;2022-12-18T16:35:19;-9.80;99.90
37158;DHT22;23050;51.776;22.638;2022-12-18T16:37:45;-9.80;99.90
37158;DHT22;23050;51.776;22.638;2022-12-18T16:40:13;-9.90;99.90
37158;DHT22;23050;51.776;22.638;2022-12-18T16:42:43;-9.20;99.90
37158;DHT22;23050;51.776;22.638;2022-12-18T16:45:12;-11.40;99.90
37158;DHT22;23050;51.776;22.638;2022-12-18T16:47:37;-11.00;99.90
37158;DHT22;23050;51.776;22.638;2022-12-18T16:50:04;-10.40;99.90
37158;DHT22;23050;51.776;22.638;2022-12-18T16:52:30;-10.30;99.90
37158;DHT22;23050;51.776;22.638;2022-12-18T16:54:56;-10.80;99.90
37158;DHT22;23050;51.776;22.638;2022-12-18T16:57:22;-11.00;99.90
37158;DHT22;23050;51.776;22.638;2022-12-18T16:59:47;-10.50;99.90
37158;DHT22;23050;51.776;22.638;2022-12-18T17:04:42;-10.40;99.90
37158;DHT22;23050;51.776;22.638;2022-12-18T17:07:08;-10.70;99.90
37158;DHT22;23050;51.776;22.638;2022-12-18T17:09:34;-10.80;99.90
37158;DHT22;23050;51.776;22.638;2022-12-18T17:12:00;-10.60;99.90
37158;DHT22;23050;51.776;22.638;2022-12-18T17:14:27;-10.50;99.90
37158;DHT22;23050;51.776;22.638;2022-12-18T17:16:53;-9.70;99.90
37158;DHT22;23050;51.776;22.638;2022-12-18T17:19:19;-9.80;99.90
37158;DHT22;23050;51.776;22.638;2022-12-18T17:21:47;-10.70;99.90
37158;DHT22;23050;51.776;22.638;2022-12-18T17:24:14;-10.60;99.90
37158;DHT22;23050;51.776;22.638;2022-12-18T17:26:40;-10.50;99.90
37158;DHT22;23050;51.776;22.638;2022-12-18T17:29:05;-10.70;99.90
37158;DHT22;23050;51.776;22.638;2022-12-18T17:31:31;-10.90;99.90
37158;DHT22;23050;51.776;22.638;2022-12-18T17:33:57;-10.90;99.90
37158;DHT22;23050;51.776;22.638;2022-12-18T17:36:24;-8.50;99.90
37158;DHT22;23050;51.776;22.638;2022-12-18T17:38:55;-10.80;99.90
37158;DHT22;23050;51.776;22.638;2022-12-18T17:41:21;-9.00;99.90
37158;DHT22;23050;51.776;22.638;2022-12-18T17:43:51;-11.00;99.90
37158;DHT22;23050;51.776;22.638;2022-12-18T17:46:17;-11.10;99.90
37158;DHT22;23050;51.776;22.638;2022-12-18T17:48:43;-10.90;99.90
37158;DHT22;23050;51.776;22.638;2022-12-18T17:51:10;-10.80;99.90
37158;DHT22;23050;51.776;22.638;2022-12-18T17:53:37;-8.20;99.90
37158;DHT22;23050;51.776;22.638;2022-12-18T17:56:06;-10.40;99.90
37158;DHT22;23050;51.776;22.638;2022-12-18T17:58:35;-10.70;99.90
37158;DHT22;23050;51.776;22.638;2022-12-18T18:01:01;-10.70;99.90
37158;DHT22;23050;51.776;22.638;2022-12-18T18:03:27;-10.70;99.90
37158;DHT22;23050;51.776;22.638;2022-12-18T18:05:57;-10.60;99.90
37158;DHT22;23050;51.776;22.638;2022-12-18T18:08:24;-10.60;99.90
37158;DHT22;23050;51.776;22.638;2022-12-18T18:10:50;-10.50;99.90
37158;DHT22;23050;51.776;22.638;2022-12-18T18:13:21;-10.50;99.90
37158;DHT22;23050;51.776;22.638;2022-12-18T18:16:07;-10.40;99.90
37158;DHT22;23050;51.776;22.638;2022-12-18T18:18:32;-10.40;99.90
37158;DHT22;23050;51.776;22.638;2022-12-18T18:21:02;-10.30;99.90
37158;DHT22;23050;51.776;22.638;2022-12-18T18:23:28;-10.30;99.90
37158;DHT22;23050;51.776;22.638;2022-12-18T18:25:55;-10.20;99.90
37158;DHT22;23050;51.776;22.638;2022-12-18T18:28:26;-10.20;99.90
37158;DHT22;23050;51.776;22.638;2022-12-18T18:30:51;-10.10;99.90
37158;DHT22;23050;51.776;22.638;2022-12-18T18:33:17;-11.10;99.90
37158;DHT22;23050;51.776;22.638;2022-12-18T18:35:42;-9.90;99.90
37158;DHT22;23050;51.776;22.638;2022-12-18T18:38:08;-9.80;99.90
37158;DHT22;23050;51.776;22.638;2022-12-18T18:40:34;-9.60;99.90
37158;DHT22;23050;51.776;22.638;2022-12-18T18:42:59;-9.40;99.90
37158;DHT22;23050;51.776;22.638;2022-12-18T18:45:25;-9.30;99.90
37158;DHT22;23050;51.776;22.638;2022-12-18T18:47:50;-9.20;99.90
37158;DHT22;23050;51.776;22.638;2022-12-18T18:50:16;-9.10;99.90
37158;DHT22;23050;51.776;22.638;2022-12-18T18:52:41;-9.00;99.90
37158;DHT22;23050;51.776;22.638;2022-12-18T18:55:07;-9.00;99.90
37158;DHT22;23050;51.776;22.638;2022-12-18T18:57:33;-8.90;99.90
37158;DHT22;23050;51.776;22.638;2022-12-18T18:59:59;-8.90;99.90
37158;DHT22;23050;51.776;22.638;2022-12-18T19:02:24;-8.90;99.90
37158;DHT22;23050;51.776;22.638;2022-12-18T19:04:50;-8.90;99.90
37158;DHT22;23050;51.776;22.638;2022-12-18T19:07:16;-8.90;99.90
37158;DHT22;23050;51.776;22.638;2022-12-18T19:09:41;-8.90;99.90
37158;DHT22;23050;51.776;22.638;2022-12-18T19:12:09;-7.30;99.90
37158;DHT22;23050;51.776;22.638;2022-12-18T19:14:53;-8.90;99.90
37158;DHT22;23050;51.776;22.638;2022-12-18T19:17:19;-8.80;99.90
37158;DHT22;23050;51.776;22.638;2022-12-18T19:19:45;-8.90;99.90
37158;DHT22;23050;51.776;22.638;2022-12-18T19:22:10;-8.80;99.90
37158;DHT22;23050;51.776;22.638;2022-12-18T19:24:36;-8.80;99.90
37158;DHT22;23050;51.776;22.638;2022-12-18T19:27:03;-8.80;99.90
37158;DHT22;23050;51.776;22.638;2022-12-18T19:29:30;-8.70;99.90
37158;DHT22;23050;51.776;22.638;2022-12-18T19:32:01;-8.70;99.90
37158;DHT22;23050;51.776;22.638;2022-12-18T19:34:26;-7.80;99.90
37158;DHT22;23050;51.776;22.638;2022-12-18T19:36:52;-8.70;99.90
37158;DHT22;23050;51.776;22.638;2022-12-18T19:39:18;-8.80;99.90
37158;DHT22;23050;51.776;22.638;2022-12-18T19:41:45;-8.80;99.90
37158;DHT22;23050;51.776;22.638;2022-12-18T19:44:15;-8.80;99.90
37158;DHT22;23050;51.776;22.638;2022-12-18T19:46:41;-8.70;99.90
37158;DHT22;23050;51.776;22.638;2022-12-18T19:49:11;-8.70;99.90
37158;DHT22;23050;51.776;22.638;2022-12-18T19:51:38;-8.80;99.90
37158;DHT22;23050;51.776;22.638;2022-12-18T19:54:04;-8.80;99.90
37158;DHT22;23050;51.776;22.638;2022-12-18T19:56:32;-8.80;99.90
37158;DHT22;23050;51.776;22.638;2022-12-18T19:58:58;-9.00;99.90
37158;DHT22;23050;51.776;22.638;2022-12-18T20:01:24;-8.80;99.90
37158;DHT22;23050;51.776;22.638;2022-12-18T20:03:50;-8.80;99.90
37158;DHT22;23050;51.776;22.638;2022-12-18T20:08:49;-8.70;99.90
37158;DHT22;23050;51.776;22.638;2022-12-18T20:11:16;-8.80;99.90
37158;DHT22;23050;51.776;22.638;2022-12-18T20:13:42;-8.70;99.90
37158;DHT22;23050;51.776;22.638;2022-12-18T20:16:07;-8.30;99.90
37158;DHT22;23050;51.776;22.638;2022-12-18T20:18:33;-8.70;99.90
37158;DHT22;23050;51.776;22.638;2022-12-18T20:21:02;-8.70;99.90
37158;DHT22;23050;51.776;22.638;2022-12-18T20:23:27;-8.70;99.90
37158;DHT22;23050;51.776;22.638;2022-12-18T20:25:54;-8.60;99.90
37158;DHT22;23050;51.776;22.638;2022-12-18T20:28:20;-8.60;99.90
37158;DHT22;23050;51.776;22.638;2022-12-18T20:30:47;-8.60;99.90
37158;DHT22;23050;51.776;22.638;2022-12-18T20:33:14;-8.60;99.90
37158;DHT22;23050;51.776;22.638;2022-12-18T20:35:40;-8.60;99.90
37158;DHT22;23050;51.776;22.638;2022-12-18T20:38:06;-8.60;99.90
37158;DHT22;23050;51.776;22.638;2022-12-18T20:40:32;-8.60;99.90
37158;DHT22;23050;51.776;22.638;2022-12-18T20:42:58;-8.60;99.90
37158;DHT22;23050;51.776;22.638;2022-12-18T20:45:24;-8.60;99.90
37158;DHT22;23050;51.776;22.638;2022-12-18T20:47:55;-8.60;99.90
37158;DHT22;23050;51.776;22.638;2022-12-18T20:50:21;-8.60;99.90
37158;DHT22;23050;51.776;22.638;2022-12-18T20:52:47;-8.60;99.90
37158;DHT22;23050;51.776;22.638;2022-12-18T20:55:13;-8.70;99.90
37158;DHT22;23050;51.776;22.638;2022-12-18T20:57:39;-8.60;99.90
37158;DHT22;23050;51.776;22.638;2022-12-18T21:00:05;-8.50;99.90
37158;DHT22;23050;51.776;22.638;2022-12-18T21:02:32;-8.50;99.90
37158;DHT22;23050;51.776;22.638;2022-12-18T21:04:57;-8.50;99.90
37158;DHT22;23050;51.776;22.638;2022-12-18T21:07:23;-8.60;99.90
37158;DHT22;23050;51.776;22.638;2022-12-18T21:09:48;-8.60;99.90
37158;DHT22;23050;51.776;22.638;2022-12-18T21:12:14;-8.60;99.90
37158;DHT22;23050;51.776;22.638;2022-12-18T21:15:07;-8.60;99.90
37158;DHT22;23050;51.776;22.638;2022-12-18T21:17:33;-8.60;99.90
37158;DHT22;23050;51.776;22.638;2022-12-18T21:19:59;-8.60;99.90
37158;DHT22;23050;51.776;22.638;2022-12-18T21:22:25;-8.60;99.90
37158;DHT22;23050;51.776;22.638;2022-12-18T21:24:51;-8.60;99.90
37158;DHT22;23050;51.776;22.638;2022-12-18T21:27:17;-8.60;99.90
37158;DHT22;23050;51.776;22.638;2022-12-18T21:29:43;-8.60;99.90
37158;DHT22;23050;51.776;22.638;2022-12-18T21:32:09;-8.60;99.90
37158;DHT22;23050;51.776;22.638;2022-12-18T21:34:36;-8.60;99.90
37158;DHT22;23050;51.776;22.638;2022-12-18T21:37:02;-8.60;99.90
37158;DHT22;23050;51.776;22.638;2022-12-18T21:39:28;-8.60;99.90
37158;DHT22;23050;51.776;22.638;2022-12-18T21:41:55;-8.60;99.90
37158;DHT22;23050;51.776;22.638;2022-12-18T21:44:39;-8.70;99.90
37158;DHT22;23050;51.776;22.638;2022-12-18T21:47:05;-8.60;99.90
37158;DHT22;23050;51.776;22.638;2022-12-18T21:49:31;-8.60;99.90
37158;DHT22;23050;51.776;22.638;2022-12-18T21:51:59;-8.60;99.90
37158;DHT22;23050;51.776;22.638;2022-12-18T21:54:27;-8.60;99.90
37158;DHT22;23050;51.776;22.638;2022-12-18T21:56:54;-8.60;99.90
37158;DHT22;23050;51.776;22.638;2022-12-18T21:59:26;-8.50;99.90
37158;DHT22;23050;51.776;22.638;2022-12-18T22:01:55;-8.50;99.90
37158;DHT22;23050;51.776;22.638;2022-12-18T22:04:21;-8.50;99.90
37158;DHT22;23050;51.776;22.638;2022-12-18T22:06:48;-8.50;99.90
37158;DHT22;23050;51.776;22.638;2022-12-18T22:09:16;-8.50;99.90
37158;DHT22;23050;51.776;22.638;2022-12-18T22:11:42;-8.50;99.90
37158;DHT22;23050;51.776;22.638;2022-12-18T22:14:08;-8.50;99.90
37158;DHT22;23050;51.776;22.638;2022-12-18T22:16:34;-8.50;99.90
37158;DHT22;23050;51.776;22.638;2022-12-18T22:19:00;-8.50;99.90
37158;DHT22;23050;51.776;22.638;2022-12-18T22:21:30;-8.40;99.90
37158;DHT22;23050;51.776;22.638;2022-12-18T22:23:58;-8.40;99.90
37158;DHT22;23050;51.776;22.638;2022-12-18T22:26:26;-8.50;99.90
37158;DHT22;23050;51.776;22.638;2022-12-18T22:28:52;-8.50;99.90
37158;DHT22;23050;51.776;22.638;2022-12-18T22:31:37;-8.40;99.90
37158;DHT22;23050;51.776;22.638;2022-12-18T22:34:03;-8.40;99.90
37158;DHT22;23050;51.776;22.638;2022-12-18T22:36:38;-8.40;99.90
37158;DHT22;23050;51.776;22.638;2022-12-18T22:39:14;-8.40;99.90
37158;DHT22;23050;51.776;22.638;2022-12-18T22:41:40;-8.30;99.90
37158;DHT22;23050;51.776;22.638;2022-12-18T22:44:06;-8.30;99.90
37158;DHT22;23050;51.776;22.638;2022-12-18T22:46:34;-8.30;99.90
37158;DHT22;23050;51.776;22.638;2022-12-18T22:49:01;-8.40;99.90
37158;DHT22;23050;51.776;22.638;2022-12-18T22:51:32;-8.20;99.90
37158;DHT22;23050;51.776;22.638;2022-12-18T22:53:58;-8.10;99.90
37158;DHT22;23050;51.776;22.638;2022-12-18T22:56:23;-8.20;99.90
37158;DHT22;23050;51.776;22.638;2022-12-18T22:58:50;-8.10;99.90
37158;DHT22;23050;51.776;22.638;2022-12-18T23:01:27;-8.00;99.90
37158;DHT22;23050;51.776;22.638;2022-12-18T23:03:53;-8.00;99.90
37158;DHT22;23050;51.776;22.638;2022-12-18T23:06:20;-7.90;99.90
37158;DHT22;23050;51.776;22.638;2022-12-18T23:08:51;-7.90;99.90
37158;DHT22;23050;51.776;22.638;2022-12-18T23:11:18;-7.90;99.90
37158;DHT22;23050;51.776;22.638;2022-12-18T23:13:44;-5.60;99.90
37158;DHT22;23050;51.776;22.638;2022-12-18T23:16:16;-8.00;99.90
37158;DHT22;23050;51.776;22.638;2022-12-18T23:18:42;-7.80;99.90
37158;DHT22;23050;51.776;22.638;2022-12-18T23:21:17;-7.80;99.90
37158;DHT22;23050;51.776;22.638;2022-12-18T23:23:44;-7.70;99.90
37158;DHT22;23050;51.776;22.638;2022-12-18T23:26:21;-7.70;99.90
37158;DHT22;23050;51.776;22.638;2022-12-18T23:28:48;-7.60;99.90
37158;DHT22;23050;51.776;22.638;2022-12-18T23:31:18;-7.60;99.90
37158;DHT22;23050;51.776;22.638;2022-12-18T23:33:47;-5.40;99.90
37158;DHT22;23050;51.776;22.638;2022-12-18T23:36:14;-7.60;99.90
37158;DHT22;23050;51.776;22.638;2022-12-18T23:38:40;-7.50;99.90
37158;DHT22;23050;51.776;22.638;2022-12-18T23:41:12;-7.50;99.90
37158;DHT22;23050;51.776;22.638;2022-12-18T23:43:39;-7.50;99.90
37158;DHT22;23050;51.776;22.638;2022-12-18T23:48:45;-7.40;99.90
37158;DHT22;23050;51.776;22.638;2022-12-18T23:51:13;-7.40;99.90
37158;DHT22;23050;51.776;22.638;2022-12-18T23:53:40;-7.40;99.90
37158;DHT22;23050;51.776;22.638;2022-12-18T23:56:07;-7.40;99.90
37158;DHT22;23050;51.776;22.638;2022-12-18T23:58:34;-7.30;99.90
